sensor_id;sensor_type;location;lat;lon;timestamp;P1;durP1;ratioP1;P2;durP2;ratioP2
47804;SDS011;33568;45.286;9.900;2023-07-22T00:02:23;3.80;;;3.28;;
47804;SDS011;33568;45.286;9.900;2023-07-22T00:04:49;4.95;;;3.13;;
47804;SDS011;33568;45.286;9.900;2023-07-22T00:07:18;3.78;;;3.00;;
47804;SDS011;33568;45.286;9.900;2023-07-22T00:09:44;4.18;;;3.78;;
47804;SDS011;33568;45.286;9.900;2023-07-22T00:12:11;5.40;;;3.72;;
47804;SDS011;33568;45.286;9.900;2023-07-22T00:14:39;7.65;;;3.80;;
47804;SDS011;33568;45.286;9.900;2023-07-22T00:17:06;5.55;;;3.55;;
47804;SDS011;33568;45.286;9.900;2023-07-22T00:19:33;4.93;;;4.00;;
47804;SDS011;33568;45.286;9.900;2023-07-22T00:22:00;5.55;;;3.83;;
47804;SDS011;33568;45.286;9.900;2023-07-22T00:24:27;5.63;;;4.30;;
47804;SDS011;33568;45.286;9.900;2023-07-22T00:26:54;4.13;;;3.67;;
47804;SDS011;33568;45.286;9.900;2023-07-22T00:29:21;4.68;;;3.90;;
47804;SDS011;33568;45.286;9.900;2023-07-22T00:31:47;6.07;;;4.43;;
47804;SDS011;33568;45.286;9.900;2023-07-22T00:34:15;7.22;;;3.40;;
47804;SDS011;33568;45.286;9.900;2023-07-22T00:36:42;6.22;;;3.88;;
47804;SDS011;33568;45.286;9.900;2023-07-22T00:39:10;5.07;;;4.40;;
47804;SDS011;33568;45.286;9.900;2023-07-22T00:41:39;4.85;;;4.35;;
47804;SDS011;33568;45.286;9.900;2023-07-22T00:44:08;7.35;;;4.68;;
47804;SDS011;33568;45.286;9.900;2023-07-22T00:46:35;4.28;;;3.70;;
47804;SDS011;33568;45.286;9.900;2023-07-22T00:49:01;5.63;;;5.00;;
47804;SDS011;33568;45.286;9.900;2023-07-22T00:51:28;4.53;;;4.13;;
47804;SDS011;33568;45.286;9.900;2023-07-22T00:53:55;4.78;;;3.83;;
47804;SDS011;33568;45.286;9.900;2023-07-22T00:56:22;5.97;;;3.97;;
47804;SDS011;33568;45.286;9.900;2023-07-22T00:58:48;4.35;;;3.55;;
47804;SDS011;33568;45.286;9.900;2023-07-22T01:01:15;5.30;;;3.80;;
47804;SDS011;33568;45.286;9.900;2023-07-22T01:03:42;5.72;;;4.57;;
47804;SDS011;33568;45.286;9.900;2023-07-22T01:06:09;6.18;;;5.05;;
47804;SDS011;33568;45.286;9.900;2023-07-22T01:08:36;5.82;;;5.22;;
47804;SDS011;33568;45.286;9.900;2023-07-22T01:11:03;5.90;;;3.92;;
47804;SDS011;33568;45.286;9.900;2023-07-22T01:13:30;5.22;;;3.78;;
47804;SDS011;33568;45.286;9.900;2023-07-22T01:15:56;4.65;;;3.25;;
47804;SDS011;33568;45.286;9.900;2023-07-22T01:18:23;7.32;;;5.15;;
47804;SDS011;33568;45.286;9.900;2023-07-22T01:20:50;6.80;;;5.25;;
47804;SDS011;33568;45.286;9.900;2023-07-22T01:23:16;6.68;;;4.53;;
47804;SDS011;33568;45.286;9.900;2023-07-22T01:25:43;7.32;;;5.13;;
47804;SDS011;33568;45.286;9.900;2023-07-22T01:28:10;5.90;;;4.20;;
47804;SDS011;33568;45.286;9.900;2023-07-22T01:30:37;5.25;;;4.38;;
47804;SDS011;33568;45.286;9.900;2023-07-22T01:33:03;6.25;;;5.65;;
47804;SDS011;33568;45.286;9.900;2023-07-22T01:35:30;6.60;;;5.07;;
47804;SDS011;33568;45.286;9.900;2023-07-22T01:37:56;7.22;;;4.00;;
47804;SDS011;33568;45.286;9.900;2023-07-22T01:40:24;5.65;;;5.15;;
47804;SDS011;33568;45.286;9.900;2023-07-22T01:42:51;5.10;;;3.83;;
47804;SDS011;33568;45.286;9.900;2023-07-22T01:45:18;6.95;;;5.40;;
47804;SDS011;33568;45.286;9.900;2023-07-22T01:47:44;5.75;;;3.75;;
47804;SDS011;33568;45.286;9.900;2023-07-22T01:50:11;6.90;;;5.03;;
47804;SDS011;33568;45.286;9.900;2023-07-22T01:52:37;7.70;;;5.63;;
47804;SDS011;33568;45.286;9.900;2023-07-22T01:55:04;6.18;;;4.45;;
47804;SDS011;33568;45.286;9.900;2023-07-22T01:57:32;6.13;;;4.95;;
47804;SDS011;33568;45.286;9.900;2023-07-22T01:59:59;6.90;;;5.63;;
47804;SDS011;33568;45.286;9.900;2023-07-22T02:02:26;11.88;;;5.90;;
47804;SDS011;33568;45.286;9.900;2023-07-22T02:04:52;5.53;;;4.32;;
47804;SDS011;33568;45.286;9.900;2023-07-22T02:07:19;5.90;;;4.50;;
47804;SDS011;33568;45.286;9.900;2023-07-22T02:09:46;5.82;;;4.05;;
47804;SDS011;33568;45.286;9.900;2023-07-22T02:12:12;9.20;;;4.35;;
47804;SDS011;33568;45.286;9.900;2023-07-22T02:14:39;5.40;;;4.80;;
47804;SDS011;33568;45.286;9.900;2023-07-22T02:17:05;6.05;;;4.60;;
47804;SDS011;33568;45.286;9.900;2023-07-22T02:19:35;5.22;;;4.60;;
47804;SDS011;33568;45.286;9.900;2023-07-22T02:22:03;9.00;;;5.07;;
47804;SDS011;33568;45.286;9.900;2023-07-22T02:24:30;4.63;;;3.20;;
47804;SDS011;33568;45.286;9.900;2023-07-22T02:26:57;5.45;;;4.57;;
47804;SDS011;33568;45.286;9.900;2023-07-22T02:29:24;7.90;;;4.50;;
47804;SDS011;33568;45.286;9.900;2023-07-22T02:31:51;9.32;;;4.90;;
47804;SDS011;33568;45.286;9.900;2023-07-22T02:34:17;4.80;;;4.30;;
47804;SDS011;33568;45.286;9.900;2023-07-22T02:36:44;6.97;;;5.22;;
47804;SDS011;33568;45.286;9.900;2023-07-22T02:39:10;5.50;;;4.10;;
47804;SDS011;33568;45.286;9.900;2023-07-22T02:41:37;6.90;;;5.32;;
47804;SDS011;33568;45.286;9.900;2023-07-22T02:44:03;8.02;;;3.83;;
47804;SDS011;33568;45.286;9.900;2023-07-22T02:46:30;7.82;;;5.53;;
47804;SDS011;33568;45.286;9.900;2023-07-22T02:48:57;6.85;;;5.38;;
47804;SDS011;33568;45.286;9.900;2023-07-22T02:51:24;7.95;;;6.80;;
47804;SDS011;33568;45.286;9.900;2023-07-22T02:53:51;11.25;;;6.25;;
47804;SDS011;33568;45.286;9.900;2023-07-22T02:56:17;7.65;;;5.68;;
47804;SDS011;33568;45.286;9.900;2023-07-22T02:58:44;6.30;;;4.85;;
47804;SDS011;33568;45.286;9.900;2023-07-22T03:01:11;7.65;;;5.25;;
47804;SDS011;33568;45.286;9.900;2023-07-22T03:03:38;6.95;;;5.10;;
47804;SDS011;33568;45.286;9.900;2023-07-22T03:06:05;8.80;;;5.20;;
47804;SDS011;33568;45.286;9.900;2023-07-22T03:08:33;10.15;;;5.32;;
47804;SDS011;33568;45.286;9.900;2023-07-22T03:11:00;6.50;;;4.38;;
47804;SDS011;33568;45.286;9.900;2023-07-22T03:13:27;8.25;;;6.15;;
47804;SDS011;33568;45.286;9.900;2023-07-22T03:15:55;13.38;;;6.80;;
47804;SDS011;33568;45.286;9.900;2023-07-22T03:18:22;6.00;;;3.95;;
47804;SDS011;33568;45.286;9.900;2023-07-22T03:20:49;7.22;;;4.72;;
47804;SDS011;33568;45.286;9.900;2023-07-22T03:23:15;7.22;;;5.40;;
47804;SDS011;33568;45.286;9.900;2023-07-22T03:25:42;9.52;;;6.85;;
47804;SDS011;33568;45.286;9.900;2023-07-22T03:28:08;8.02;;;5.85;;
47804;SDS011;33568;45.286;9.900;2023-07-22T03:30:35;5.97;;;5.18;;
47804;SDS011;33568;45.286;9.900;2023-07-22T03:33:01;9.10;;;5.47;;
47804;SDS011;33568;45.286;9.900;2023-07-22T03:35:28;7.75;;;5.32;;
47804;SDS011;33568;45.286;9.900;2023-07-22T03:37:55;8.02;;;5.22;;
47804;SDS011;33568;45.286;9.900;2023-07-22T03:40:21;9.02;;;5.55;;
47804;SDS011;33568;45.286;9.900;2023-07-22T03:42:53;10.57;;;5.72;;
47804;SDS011;33568;45.286;9.900;2023-07-22T03:45:21;6.20;;;4.20;;
47804;SDS011;33568;45.286;9.900;2023-07-22T03:47:52;5.53;;;4.50;;
47804;SDS011;33568;45.286;9.900;2023-07-22T03:50:23;7.35;;;4.78;;
47804;SDS011;33568;45.286;9.900;2023-07-22T03:52:50;6.40;;;4.28;;
47804;SDS011;33568;45.286;9.900;2023-07-22T03:55:17;5.78;;;5.28;;
47804;SDS011;33568;45.286;9.900;2023-07-22T03:57:45;3.95;;;3.50;;
47804;SDS011;33568;45.286;9.900;2023-07-22T04:00:12;5.75;;;4.22;;
47804;SDS011;33568;45.286;9.900;2023-07-22T04:02:40;7.80;;;5.35;;
47804;SDS011;33568;45.286;9.900;2023-07-22T04:05:07;6.72;;;5.07;;
47804;SDS011;33568;45.286;9.900;2023-07-22T04:07:34;5.75;;;4.70;;
47804;SDS011;33568;45.286;9.900;2023-07-22T04:10:01;8.07;;;4.95;;
47804;SDS011;33568;45.286;9.900;2023-07-22T04:12:28;8.07;;;5.88;;
47804;SDS011;33568;45.286;9.900;2023-07-22T04:14:55;8.48;;;5.53;;
47804;SDS011;33568;45.286;9.900;2023-07-22T04:17:21;6.65;;;5.68;;
47804;SDS011;33568;45.286;9.900;2023-07-22T04:19:48;7.55;;;5.55;;
47804;SDS011;33568;45.286;9.900;2023-07-22T04:22:17;6.22;;;5.10;;
47804;SDS011;33568;45.286;9.900;2023-07-22T04:24:44;9.07;;;4.88;;
47804;SDS011;33568;45.286;9.900;2023-07-22T04:27:11;5.93;;;5.32;;
47804;SDS011;33568;45.286;9.900;2023-07-22T04:29:37;8.18;;;5.93;;
47804;SDS011;33568;45.286;9.900;2023-07-22T04:32:06;6.03;;;4.38;;
47804;SDS011;33568;45.286;9.900;2023-07-22T04:34:34;6.60;;;4.65;;
47804;SDS011;33568;45.286;9.900;2023-07-22T04:37:01;9.05;;;5.72;;
47804;SDS011;33568;45.286;9.900;2023-07-22T04:39:27;7.30;;;5.47;;
47804;SDS011;33568;45.286;9.900;2023-07-22T04:41:54;8.63;;;4.38;;
47804;SDS011;33568;45.286;9.900;2023-07-22T04:44:20;7.70;;;5.53;;
47804;SDS011;33568;45.286;9.900;2023-07-22T04:46:47;8.43;;;5.68;;
47804;SDS011;33568;45.286;9.900;2023-07-22T04:49:13;7.97;;;5.45;;
47804;SDS011;33568;45.286;9.900;2023-07-22T04:51:46;7.90;;;5.53;;
47804;SDS011;33568;45.286;9.900;2023-07-22T04:54:13;8.63;;;5.63;;
47804;SDS011;33568;45.286;9.900;2023-07-22T04:56:41;10.43;;;5.18;;
47804;SDS011;33568;45.286;9.900;2023-07-22T04:59:08;7.13;;;6.35;;
47804;SDS011;33568;45.286;9.900;2023-07-22T05:01:35;7.20;;;5.22;;
47804;SDS011;33568;45.286;9.900;2023-07-22T05:04:02;7.65;;;5.18;;
47804;SDS011;33568;45.286;9.900;2023-07-22T05:06:29;9.82;;;4.75;;
47804;SDS011;33568;45.286;9.900;2023-07-22T05:08:55;8.55;;;5.57;;
47804;SDS011;33568;45.286;9.900;2023-07-22T05:11:22;6.13;;;5.47;;
47804;SDS011;33568;45.286;9.900;2023-07-22T05:13:49;7.95;;;5.78;;
47804;SDS011;33568;45.286;9.900;2023-07-22T05:16:16;11.32;;;7.05;;
47804;SDS011;33568;45.286;9.900;2023-07-22T05:18:42;7.47;;;5.10;;
47804;SDS011;33568;45.286;9.900;2023-07-22T05:21:09;5.57;;;4.75;;
47804;SDS011;33568;45.286;9.900;2023-07-22T05:23:35;8.70;;;5.10;;
47804;SDS011;33568;45.286;9.900;2023-07-22T05:26:01;7.00;;;5.63;;
47804;SDS011;33568;45.286;9.900;2023-07-22T05:28:28;5.20;;;4.70;;
47804;SDS011;33568;45.286;9.900;2023-07-22T05:30:55;8.55;;;4.38;;
47804;SDS011;33568;45.286;9.900;2023-07-22T05:33:22;5.55;;;4.28;;
47804;SDS011;33568;45.286;9.900;2023-07-22T05:35:48;4.38;;;3.75;;
47804;SDS011;33568;45.286;9.900;2023-07-22T05:38:15;7.43;;;5.80;;
47804;SDS011;33568;45.286;9.900;2023-07-22T05:40:41;6.38;;;4.10;;
47804;SDS011;33568;45.286;9.900;2023-07-22T05:43:08;6.68;;;5.80;;
47804;SDS011;33568;45.286;9.900;2023-07-22T05:45:34;6.03;;;4.50;;
47804;SDS011;33568;45.286;9.900;2023-07-22T05:48:01;3.78;;;3.40;;
47804;SDS011;33568;45.286;9.900;2023-07-22T05:50:27;4.03;;;3.53;;
47804;SDS011;33568;45.286;9.900;2023-07-22T05:52:54;6.35;;;4.80;;
47804;SDS011;33568;45.286;9.900;2023-07-22T05:55:20;3.88;;;3.20;;
47804;SDS011;33568;45.286;9.900;2023-07-22T05:57:47;4.90;;;3.15;;
47804;SDS011;33568;45.286;9.900;2023-07-22T06:00:14;8.60;;;6.45;;
47804;SDS011;33568;45.286;9.900;2023-07-22T06:02:41;7.13;;;6.22;;
47804;SDS011;33568;45.286;9.900;2023-07-22T06:05:07;6.88;;;5.18;;
47804;SDS011;33568;45.286;9.900;2023-07-22T06:07:34;7.35;;;4.80;;
47804;SDS011;33568;45.286;9.900;2023-07-22T06:10:00;4.13;;;3.28;;
47804;SDS011;33568;45.286;9.900;2023-07-22T06:12:27;9.27;;;4.60;;
47804;SDS011;33568;45.286;9.900;2023-07-22T06:14:53;7.18;;;5.55;;
47804;SDS011;33568;45.286;9.900;2023-07-22T06:17:20;6.18;;;4.57;;
47804;SDS011;33568;45.286;9.900;2023-07-22T06:19:46;5.90;;;4.40;;
47804;SDS011;33568;45.286;9.900;2023-07-22T06:22:13;7.78;;;5.25;;
47804;SDS011;33568;45.286;9.900;2023-07-22T06:24:39;7.78;;;5.80;;
47804;SDS011;33568;45.286;9.900;2023-07-22T06:27:06;6.43;;;3.90;;
47804;SDS011;33568;45.286;9.900;2023-07-22T06:29:33;7.13;;;5.45;;
47804;SDS011;33568;45.286;9.900;2023-07-22T06:31:59;5.68;;;4.72;;
47804;SDS011;33568;45.286;9.900;2023-07-22T06:34:26;7.00;;;4.35;;
47804;SDS011;33568;45.286;9.900;2023-07-22T06:36:53;7.43;;;4.85;;
47804;SDS011;33568;45.286;9.900;2023-07-22T06:39:20;7.03;;;5.50;;
47804;SDS011;33568;45.286;9.900;2023-07-22T06:41:46;4.88;;;3.55;;
47804;SDS011;33568;45.286;9.900;2023-07-22T06:44:13;7.68;;;5.00;;
47804;SDS011;33568;45.286;9.900;2023-07-22T06:46:39;6.30;;;4.25;;
47804;SDS011;33568;45.286;9.900;2023-07-22T06:49:06;7.47;;;3.65;;
47804;SDS011;33568;45.286;9.900;2023-07-22T06:51:33;5.75;;;3.47;;
47804;SDS011;33568;45.286;9.900;2023-07-22T06:54:00;4.88;;;3.92;;
47804;SDS011;33568;45.286;9.900;2023-07-22T06:56:28;6.25;;;4.05;;
47804;SDS011;33568;45.286;9.900;2023-07-22T06:58:54;14.43;;;4.43;;
47804;SDS011;33568;45.286;9.900;2023-07-22T07:01:21;6.30;;;4.05;;
47804;SDS011;33568;45.286;9.900;2023-07-22T07:03:47;5.05;;;3.50;;
47804;SDS011;33568;45.286;9.900;2023-07-22T07:06:14;8.20;;;4.32;;
47804;SDS011;33568;45.286;9.900;2023-07-22T07:08:41;5.10;;;3.17;;
47804;SDS011;33568;45.286;9.900;2023-07-22T07:11:07;10.95;;;4.43;;
47804;SDS011;33568;45.286;9.900;2023-07-22T07:13:34;6.63;;;3.10;;
47804;SDS011;33568;45.286;9.900;2023-07-22T07:16:19;4.55;;;3.97;;
47804;SDS011;33568;45.286;9.900;2023-07-22T07:18:51;5.10;;;3.33;;
47804;SDS011;33568;45.286;9.900;2023-07-22T07:21:18;4.50;;;3.83;;
47804;SDS011;33568;45.286;9.900;2023-07-22T07:23:45;6.07;;;3.30;;
47804;SDS011;33568;45.286;9.900;2023-07-22T07:26:12;6.63;;;3.50;;
47804;SDS011;33568;45.286;9.900;2023-07-22T07:28:38;7.70;;;3.58;;
47804;SDS011;33568;45.286;9.900;2023-07-22T07:31:05;3.75;;;3.15;;
47804;SDS011;33568;45.286;9.900;2023-07-22T07:33:32;3.90;;;3.60;;
47804;SDS011;33568;45.286;9.900;2023-07-22T07:35:59;8.15;;;2.88;;
47804;SDS011;33568;45.286;9.900;2023-07-22T07:38:26;4.40;;;3.40;;
47804;SDS011;33568;45.286;9.900;2023-07-22T07:40:58;5.03;;;4.20;;
47804;SDS011;33568;45.286;9.900;2023-07-22T07:43:26;4.43;;;3.83;;
47804;SDS011;33568;45.286;9.900;2023-07-22T07:48:48;4.13;;;3.70;;
47804;SDS011;33568;45.286;9.900;2023-07-22T07:51:17;5.07;;;3.15;;
47804;SDS011;33568;45.286;9.900;2023-07-22T07:53:45;4.13;;;3.72;;
47804;SDS011;33568;45.286;9.900;2023-07-22T07:56:16;6.07;;;4.30;;
47804;SDS011;33568;45.286;9.900;2023-07-22T07:58:44;5.00;;;3.58;;
47804;SDS011;33568;45.286;9.900;2023-07-22T08:01:12;4.75;;;4.07;;
47804;SDS011;33568;45.286;9.900;2023-07-22T08:03:39;4.82;;;3.90;;
47804;SDS011;33568;45.286;9.900;2023-07-22T08:06:07;8.20;;;3.88;;
47804;SDS011;33568;45.286;9.900;2023-07-22T08:08:35;5.07;;;4.20;;
47804;SDS011;33568;45.286;9.900;2023-07-22T08:11:03;6.30;;;3.90;;
47804;SDS011;33568;45.286;9.900;2023-07-22T08:13:32;5.68;;;3.88;;
47804;SDS011;33568;45.286;9.900;2023-07-22T08:16:00;3.88;;;3.35;;
47804;SDS011;33568;45.286;9.900;2023-07-22T08:18:27;4.78;;;3.75;;
47804;SDS011;33568;45.286;9.900;2023-07-22T08:20:54;3.83;;;3.40;;
47804;SDS011;33568;45.286;9.900;2023-07-22T08:23:21;5.88;;;4.22;;
47804;SDS011;33568;45.286;9.900;2023-07-22T08:25:48;5.70;;;3.85;;
47804;SDS011;33568;45.286;9.900;2023-07-22T08:28:15;5.40;;;3.95;;
47804;SDS011;33568;45.286;9.900;2023-07-22T08:30:43;4.47;;;3.55;;
47804;SDS011;33568;45.286;9.900;2023-07-22T08:33:10;5.15;;;4.10;;
47804;SDS011;33568;45.286;9.900;2023-07-22T08:35:38;4.70;;;3.33;;
47804;SDS011;33568;45.286;9.900;2023-07-22T08:38:07;5.82;;;3.88;;
47804;SDS011;33568;45.286;9.900;2023-07-22T08:40:35;5.93;;;4.15;;
47804;SDS011;33568;45.286;9.900;2023-07-22T08:43:03;5.50;;;3.88;;
47804;SDS011;33568;45.286;9.900;2023-07-22T08:45:32;5.85;;;3.58;;
47804;SDS011;33568;45.286;9.900;2023-07-22T08:48:04;5.80;;;4.13;;
47804;SDS011;33568;45.286;9.900;2023-07-22T08:50:39;7.63;;;3.80;;
47804;SDS011;33568;45.286;9.900;2023-07-22T08:53:06;4.82;;;4.28;;
47804;SDS011;33568;45.286;9.900;2023-07-22T08:55:34;6.28;;;3.95;;
47804;SDS011;33568;45.286;9.900;2023-07-22T08:58:01;6.35;;;3.72;;
47804;SDS011;33568;45.286;9.900;2023-07-22T09:00:28;5.47;;;4.07;;
47804;SDS011;33568;45.286;9.900;2023-07-22T09:02:55;5.10;;;3.75;;
47804;SDS011;33568;45.286;9.900;2023-07-22T09:05:22;5.22;;;3.20;;
47804;SDS011;33568;45.286;9.900;2023-07-22T09:07:49;5.20;;;3.83;;
47804;SDS011;33568;45.286;9.900;2023-07-22T09:10:16;5.32;;;3.67;;
47804;SDS011;33568;45.286;9.900;2023-07-22T09:12:43;6.18;;;3.53;;
47804;SDS011;33568;45.286;9.900;2023-07-22T09:15:11;4.97;;;3.60;;
47804;SDS011;33568;45.286;9.900;2023-07-22T09:17:38;6.78;;;3.85;;
47804;SDS011;33568;45.286;9.900;2023-07-22T09:20:07;6.78;;;3.35;;
47804;SDS011;33568;45.286;9.900;2023-07-22T09:22:33;8.85;;;3.83;;
47804;SDS011;33568;45.286;9.900;2023-07-22T09:25:13;6.28;;;3.97;;
47804;SDS011;33568;45.286;9.900;2023-07-22T09:27:43;9.13;;;3.55;;
47804;SDS011;33568;45.286;9.900;2023-07-22T09:30:52;5.53;;;3.35;;
47804;SDS011;33568;45.286;9.900;2023-07-22T09:33:04;5.10;;;3.38;;
47804;SDS011;33568;45.286;9.900;2023-07-22T09:35:46;6.65;;;3.90;;
47804;SDS011;33568;45.286;9.900;2023-07-22T09:38:14;3.60;;;2.92;;
47804;SDS011;33568;45.286;9.900;2023-07-22T09:40:43;6.22;;;3.58;;
47804;SDS011;33568;45.286;9.900;2023-07-22T09:43:10;5.70;;;4.13;;
47804;SDS011;33568;45.286;9.900;2023-07-22T09:45:40;4.35;;;2.88;;
47804;SDS011;33568;45.286;9.900;2023-07-22T09:48:06;8.23;;;4.20;;
47804;SDS011;33568;45.286;9.900;2023-07-22T09:50:35;7.63;;;3.95;;
47804;SDS011;33568;45.286;9.900;2023-07-22T09:53:05;9.48;;;4.72;;
47804;SDS011;33568;45.286;9.900;2023-07-22T09:55:33;6.28;;;3.83;;
47804;SDS011;33568;45.286;9.900;2023-07-22T09:58:01;4.65;;;3.38;;
47804;SDS011;33568;45.286;9.900;2023-07-22T10:00:29;4.75;;;3.47;;
47804;SDS011;33568;45.286;9.900;2023-07-22T10:03:00;6.70;;;3.08;;
47804;SDS011;33568;45.286;9.900;2023-07-22T10:05:30;4.55;;;3.45;;
47804;SDS011;33568;45.286;9.900;2023-07-22T10:08:00;7.03;;;3.92;;
47804;SDS011;33568;45.286;9.900;2023-07-22T10:10:32;2.92;;;2.40;;
47804;SDS011;33568;45.286;9.900;2023-07-22T10:13:05;14.70;;;5.03;;
47804;SDS011;33568;45.286;9.900;2023-07-22T10:15:32;14.20;;;5.22;;
47804;SDS011;33568;45.286;9.900;2023-07-22T10:18:03;12.23;;;4.78;;
47804;SDS011;33568;45.286;9.900;2023-07-22T10:20:33;10.20;;;4.55;;
47804;SDS011;33568;45.286;9.900;2023-07-22T10:23:02;18.05;;;5.43;;
47804;SDS011;33568;45.286;9.900;2023-07-22T10:25:29;12.18;;;5.53;;
47804;SDS011;33568;45.286;9.900;2023-07-22T10:27:56;11.27;;;5.00;;
47804;SDS011;33568;45.286;9.900;2023-07-22T10:30:23;7.55;;;4.85;;
47804;SDS011;33568;45.286;9.900;2023-07-22T10:32:51;7.60;;;5.03;;
47804;SDS011;33568;45.286;9.900;2023-07-22T10:35:22;9.18;;;4.05;;
47804;SDS011;33568;45.286;9.900;2023-07-22T10:37:55;7.78;;;4.00;;
47804;SDS011;33568;45.286;9.900;2023-07-22T10:40:53;6.05;;;3.67;;
47804;SDS011;33568;45.286;9.900;2023-07-22T10:43:38;5.45;;;3.45;;
47804;SDS011;33568;45.286;9.900;2023-07-22T10:46:07;4.40;;;2.92;;
47804;SDS011;33568;45.286;9.900;2023-07-22T10:48:38;4.18;;;2.97;;
47804;SDS011;33568;45.286;9.900;2023-07-22T10:53:40;6.13;;;3.15;;
47804;SDS011;33568;45.286;9.900;2023-07-22T10:56:13;5.72;;;3.40;;
47804;SDS011;33568;45.286;9.900;2023-07-22T11:06:32;5.15;;;3.50;;
47804;SDS011;33568;45.286;9.900;2023-07-22T11:08:59;5.50;;;3.95;;
47804;SDS011;33568;45.286;9.900;2023-07-22T11:11:35;4.22;;;2.80;;
47804;SDS011;33568;45.286;9.900;2023-07-22T11:14:15;5.22;;;3.40;;
47804;SDS011;33568;45.286;9.900;2023-07-22T11:16:44;5.25;;;3.72;;
47804;SDS011;33568;45.286;9.900;2023-07-22T11:19:12;3.33;;;2.70;;
47804;SDS011;33568;45.286;9.900;2023-07-22T11:21:40;5.18;;;2.90;;
47804;SDS011;33568;45.286;9.900;2023-07-22T11:24:08;4.53;;;2.83;;
47804;SDS011;33568;45.286;9.900;2023-07-22T11:26:34;4.68;;;3.45;;
47804;SDS011;33568;45.286;9.900;2023-07-22T11:29:02;3.83;;;2.70;;
47804;SDS011;33568;45.286;9.900;2023-07-22T11:31:31;5.95;;;3.15;;
47804;SDS011;33568;45.286;9.900;2023-07-22T11:34:08;4.63;;;2.90;;
47804;SDS011;33568;45.286;9.900;2023-07-22T11:36:35;5.65;;;3.60;;
47804;SDS011;33568;45.286;9.900;2023-07-22T11:39:03;6.05;;;3.60;;
47804;SDS011;33568;45.286;9.900;2023-07-22T11:41:30;3.75;;;3.22;;
47804;SDS011;33568;45.286;9.900;2023-07-22T11:43:58;3.63;;;3.00;;
47804;SDS011;33568;45.286;9.900;2023-07-22T11:46:26;6.50;;;2.92;;
47804;SDS011;33568;45.286;9.900;2023-07-22T11:48:54;3.65;;;2.90;;
47804;SDS011;33568;45.286;9.900;2023-07-22T11:51:23;5.45;;;3.35;;
47804;SDS011;33568;45.286;9.900;2023-07-22T11:53:50;4.43;;;3.13;;
47804;SDS011;33568;45.286;9.900;2023-07-22T11:56:25;4.97;;;3.40;;
47804;SDS011;33568;45.286;9.900;2023-07-22T11:58:56;6.95;;;3.40;;
47804;SDS011;33568;45.286;9.900;2023-07-22T12:01:23;4.53;;;3.08;;
47804;SDS011;33568;45.286;9.900;2023-07-22T12:03:54;5.43;;;3.40;;
47804;SDS011;33568;45.286;9.900;2023-07-22T12:06:21;3.83;;;2.88;;
47804;SDS011;33568;45.286;9.900;2023-07-22T12:08:52;4.45;;;3.10;;
47804;SDS011;33568;45.286;9.900;2023-07-22T12:11:23;3.75;;;3.42;;
47804;SDS011;33568;45.286;9.900;2023-07-22T12:14:10;4.90;;;3.90;;
47804;SDS011;33568;45.286;9.900;2023-07-22T12:16:39;4.65;;;3.65;;
47804;SDS011;33568;45.286;9.900;2023-07-22T12:19:08;6.03;;;3.50;;
47804;SDS011;33568;45.286;9.900;2023-07-22T12:21:35;6.03;;;3.78;;
47804;SDS011;33568;45.286;9.900;2023-07-22T12:24:02;4.82;;;3.80;;
47804;SDS011;33568;45.286;9.900;2023-07-22T12:26:30;6.38;;;4.20;;
47804;SDS011;33568;45.286;9.900;2023-07-22T12:28:57;5.57;;;4.30;;
47804;SDS011;33568;45.286;9.900;2023-07-22T12:31:23;4.43;;;3.25;;
47804;SDS011;33568;45.286;9.900;2023-07-22T12:33:50;5.05;;;3.65;;
47804;SDS011;33568;45.286;9.900;2023-07-22T12:36:16;5.80;;;3.60;;
47804;SDS011;33568;45.286;9.900;2023-07-22T12:38:42;4.30;;;3.67;;
47804;SDS011;33568;45.286;9.900;2023-07-22T12:41:09;8.02;;;3.63;;
47804;SDS011;33568;45.286;9.900;2023-07-22T12:43:35;6.68;;;3.33;;
47804;SDS011;33568;45.286;9.900;2023-07-22T12:46:02;3.92;;;3.53;;
47804;SDS011;33568;45.286;9.900;2023-07-22T12:48:28;4.90;;;3.95;;
47804;SDS011;33568;45.286;9.900;2023-07-22T12:50:55;7.30;;;4.22;;
47804;SDS011;33568;45.286;9.900;2023-07-22T12:53:21;6.03;;;3.20;;
47804;SDS011;33568;45.286;9.900;2023-07-22T12:55:48;5.30;;;3.75;;
47804;SDS011;33568;45.286;9.900;2023-07-22T12:58:15;5.70;;;3.60;;
47804;SDS011;33568;45.286;9.900;2023-07-22T13:00:41;7.30;;;4.00;;
47804;SDS011;33568;45.286;9.900;2023-07-22T13:03:07;8.20;;;3.83;;
47804;SDS011;33568;45.286;9.900;2023-07-22T13:05:35;5.13;;;3.60;;
47804;SDS011;33568;45.286;9.900;2023-07-22T13:08:02;7.28;;;4.18;;
47804;SDS011;33568;45.286;9.900;2023-07-22T13:10:28;7.90;;;3.90;;
47804;SDS011;33568;45.286;9.900;2023-07-22T13:12:56;5.22;;;3.85;;
47804;SDS011;33568;45.286;9.900;2023-07-22T13:15:22;6.55;;;3.40;;
47804;SDS011;33568;45.286;9.900;2023-07-22T13:17:49;5.68;;;3.67;;
47804;SDS011;33568;45.286;9.900;2023-07-22T13:20:16;9.18;;;4.57;;
47804;SDS011;33568;45.286;9.900;2023-07-22T13:22:42;4.70;;;3.75;;
47804;SDS011;33568;45.286;9.900;2023-07-22T13:25:09;9.50;;;4.55;;
47804;SDS011;33568;45.286;9.900;2023-07-22T13:27:35;6.60;;;3.25;;
47804;SDS011;33568;45.286;9.900;2023-07-22T13:30:05;5.47;;;3.53;;
47804;SDS011;33568;45.286;9.900;2023-07-22T13:32:34;7.93;;;3.97;;
47804;SDS011;33568;45.286;9.900;2023-07-22T13:35:01;6.13;;;3.22;;
47804;SDS011;33568;45.286;9.900;2023-07-22T13:37:27;7.53;;;3.90;;
47804;SDS011;33568;45.286;9.900;2023-07-22T13:39:54;4.18;;;3.42;;
47804;SDS011;33568;45.286;9.900;2023-07-22T13:42:21;6.85;;;4.13;;
47804;SDS011;33568;45.286;9.900;2023-07-22T13:44:47;4.63;;;3.22;;
47804;SDS011;33568;45.286;9.900;2023-07-22T13:47:14;6.15;;;3.65;;
47804;SDS011;33568;45.286;9.900;2023-07-22T13:49:40;5.80;;;3.80;;
47804;SDS011;33568;45.286;9.900;2023-07-22T13:52:07;5.63;;;3.75;;
47804;SDS011;33568;45.286;9.900;2023-07-22T13:54:33;7.10;;;3.50;;
47804;SDS011;33568;45.286;9.900;2023-07-22T13:57:00;6.70;;;4.07;;
47804;SDS011;33568;45.286;9.900;2023-07-22T13:59:26;4.05;;;3.25;;
47804;SDS011;33568;45.286;9.900;2023-07-22T14:01:53;4.55;;;3.28;;
47804;SDS011;33568;45.286;9.900;2023-07-22T14:04:19;6.40;;;3.78;;
47804;SDS011;33568;45.286;9.900;2023-07-22T14:06:46;7.90;;;3.83;;
47804;SDS011;33568;45.286;9.900;2023-07-22T14:09:12;3.40;;;2.97;;
47804;SDS011;33568;45.286;9.900;2023-07-22T14:11:41;4.88;;;3.50;;
47804;SDS011;33568;45.286;9.900;2023-07-22T14:14:07;5.72;;;3.60;;
47804;SDS011;33568;45.286;9.900;2023-07-22T14:16:34;5.38;;;3.67;;
47804;SDS011;33568;45.286;9.900;2023-07-22T14:19:00;5.85;;;3.70;;
47804;SDS011;33568;45.286;9.900;2023-07-22T14:21:27;7.22;;;3.70;;
47804;SDS011;33568;45.286;9.900;2023-07-22T14:23:53;5.05;;;3.83;;
47804;SDS011;33568;45.286;9.900;2023-07-22T14:26:21;3.10;;;2.80;;
47804;SDS011;33568;45.286;9.900;2023-07-22T14:28:47;5.03;;;3.72;;
47804;SDS011;33568;45.286;9.900;2023-07-22T14:31:14;6.30;;;4.03;;
47804;SDS011;33568;45.286;9.900;2023-07-22T14:33:40;5.70;;;3.50;;
47804;SDS011;33568;45.286;9.900;2023-07-22T14:36:07;4.70;;;3.35;;
47804;SDS011;33568;45.286;9.900;2023-07-22T14:38:33;4.90;;;3.83;;
47804;SDS011;33568;45.286;9.900;2023-07-22T14:40:59;5.88;;;3.70;;
47804;SDS011;33568;45.286;9.900;2023-07-22T14:43:26;8.02;;;3.50;;
47804;SDS011;33568;45.286;9.900;2023-07-22T14:45:53;4.75;;;3.13;;
47804;SDS011;33568;45.286;9.900;2023-07-22T14:48:20;8.27;;;4.53;;
47804;SDS011;33568;45.286;9.900;2023-07-22T14:50:46;4.65;;;3.47;;
47804;SDS011;33568;45.286;9.900;2023-07-22T14:53:13;5.60;;;3.80;;
47804;SDS011;33568;45.286;9.900;2023-07-22T14:55:40;4.38;;;3.72;;
47804;SDS011;33568;45.286;9.900;2023-07-22T14:58:06;4.35;;;3.30;;
47804;SDS011;33568;45.286;9.900;2023-07-22T15:00:33;5.00;;;3.63;;
47804;SDS011;33568;45.286;9.900;2023-07-22T15:02:59;4.72;;;3.60;;
47804;SDS011;33568;45.286;9.900;2023-07-22T15:05:26;7.57;;;3.95;;